sensor_id;sensor_type;location;lat;lon;timestamp;P1;durP1;ratioP1;P2;durP2;ratioP2
18999;SDS011;9633;50.980;13.850;2024-03-02T00:01:19;67.80;;;44.10;;
18999;SDS011;9633;50.980;13.850;2024-03-02T00:02:52;72.27;;;45.37;;
18999;SDS011;9633;50.980;13.850;2024-03-02T00:04:24;69.73;;;45.73;;
18999;SDS011;9633;50.980;13.850;2024-03-02T00:05:57;81.57;;;48.27;;
18999;SDS011;9633;50.980;13.850;2024-03-02T00:07:30;76.63;;;47.67;;
18999;SDS011;9633;50.980;13.850;2024-03-02T00:09:05;85.73;;;49.63;;
18999;SDS011;9633;50.980;13.850;2024-03-02T00:10:42;73.70;;;45.53;;
18999;SDS011;9633;50.980;13.850;2024-03-02T00:12:15;68.53;;;44.67;;
18999;SDS011;9633;50.980;13.850;2024-03-02T00:13:48;70.60;;;45.17;;
18999;SDS011;9633;50.980;13.850;2024-03-02T00:15:30;68.83;;;44.30;;
18999;SDS011;9633;50.980;13.850;2024-03-02T00:17:16;74.33;;;43.50;;
18999;SDS011;9633;50.980;13.850;2024-03-02T00:18:56;65.80;;;42.97;;
18999;SDS011;9633;50.980;13.850;2024-03-02T00:20:33;66.80;;;43.03;;
18999;SDS011;9633;50.980;13.850;2024-03-02T00:22:06;62.97;;;41.93;;
18999;SDS011;9633;50.980;13.850;2024-03-02T00:23:39;66.47;;;41.63;;
18999;SDS011;9633;50.980;13.850;2024-03-02T00:25:14;68.23;;;43.93;;
18999;SDS011;9633;50.980;13.850;2024-03-02T00:26:47;64.73;;;41.90;;
18999;SDS011;9633;50.980;13.850;2024-03-02T00:28:21;70.60;;;44.17;;
18999;SDS011;9633;50.980;13.850;2024-03-02T00:29:55;64.57;;;43.07;;
18999;SDS011;9633;50.980;13.850;2024-03-02T00:31:28;68.97;;;43.43;;
18999;SDS011;9633;50.980;13.850;2024-03-02T00:33:02;74.27;;;46.40;;
18999;SDS011;9633;50.980;13.850;2024-03-02T00:34:38;69.47;;;43.63;;
18999;SDS011;9633;50.980;13.850;2024-03-02T00:36:12;77.73;;;47.63;;
18999;SDS011;9633;50.980;13.850;2024-03-02T00:37:45;70.27;;;44.97;;
18999;SDS011;9633;50.980;13.850;2024-03-02T00:39:19;78.30;;;46.30;;
18999;SDS011;9633;50.980;13.850;2024-03-02T00:40:53;78.27;;;46.73;;
18999;SDS011;9633;50.980;13.850;2024-03-02T00:42:26;75.63;;;47.00;;
18999;SDS011;9633;50.980;13.850;2024-03-02T00:43:59;77.53;;;47.80;;
18999;SDS011;9633;50.980;13.850;2024-03-02T00:45:32;71.93;;;44.67;;
18999;SDS011;9633;50.980;13.850;2024-03-02T00:47:06;75.60;;;46.00;;
18999;SDS011;9633;50.980;13.850;2024-03-02T00:48:43;70.53;;;44.30;;
18999;SDS011;9633;50.980;13.850;2024-03-02T00:50:20;70.40;;;43.73;;
18999;SDS011;9633;50.980;13.850;2024-03-02T00:52:01;66.53;;;42.07;;
18999;SDS011;9633;50.980;13.850;2024-03-02T00:53:35;67.23;;;42.73;;
18999;SDS011;9633;50.980;13.850;2024-03-02T00:55:07;68.97;;;44.53;;
18999;SDS011;9633;50.980;13.850;2024-03-02T00:56:42;66.90;;;43.43;;
18999;SDS011;9633;50.980;13.850;2024-03-02T00:58:15;74.50;;;45.00;;
18999;SDS011;9633;50.980;13.850;2024-03-02T00:59:48;73.33;;;46.33;;
18999;SDS011;9633;50.980;13.850;2024-03-02T01:01:21;78.63;;;48.30;;
18999;SDS011;9633;50.980;13.850;2024-03-02T01:02:54;85.27;;;51.10;;
18999;SDS011;9633;50.980;13.850;2024-03-02T01:04:27;85.00;;;51.03;;
18999;SDS011;9633;50.980;13.850;2024-03-02T01:05:59;86.87;;;51.67;;
18999;SDS011;9633;50.980;13.850;2024-03-02T01:07:33;97.47;;;54.50;;
18999;SDS011;9633;50.980;13.850;2024-03-02T01:09:06;92.93;;;52.60;;
18999;SDS011;9633;50.980;13.850;2024-03-02T01:10:38;95.03;;;53.13;;
18999;SDS011;9633;50.980;13.850;2024-03-02T01:12:13;90.63;;;51.83;;
18999;SDS011;9633;50.980;13.850;2024-03-02T01:13:45;74.10;;;47.13;;
18999;SDS011;9633;50.980;13.850;2024-03-02T01:15:19;66.30;;;43.13;;
18999;SDS011;9633;50.980;13.850;2024-03-02T01:16:51;69.47;;;42.80;;
18999;SDS011;9633;50.980;13.850;2024-03-02T01:18:24;69.77;;;44.20;;
18999;SDS011;9633;50.980;13.850;2024-03-02T01:19:56;70.53;;;43.00;;
18999;SDS011;9633;50.980;13.850;2024-03-02T01:21:29;76.23;;;47.07;;
18999;SDS011;9633;50.980;13.850;2024-03-02T01:23:02;76.23;;;46.57;;
18999;SDS011;9633;50.980;13.850;2024-03-02T01:24:35;77.50;;;47.73;;
18999;SDS011;9633;50.980;13.850;2024-03-02T01:26:09;79.97;;;49.53;;
18999;SDS011;9633;50.980;13.850;2024-03-02T01:27:42;88.70;;;49.93;;
18999;SDS011;9633;50.980;13.850;2024-03-02T01:29:18;87.97;;;50.67;;
18999;SDS011;9633;50.980;13.850;2024-03-02T01:30:51;79.10;;;46.87;;
18999;SDS011;9633;50.980;13.850;2024-03-02T01:32:23;76.67;;;47.40;;
18999;SDS011;9633;50.980;13.850;2024-03-02T01:33:56;80.40;;;48.73;;
18999;SDS011;9633;50.980;13.850;2024-03-02T01:35:30;78.40;;;48.53;;
18999;SDS011;9633;50.980;13.850;2024-03-02T01:37:02;75.57;;;47.03;;
18999;SDS011;9633;50.980;13.850;2024-03-02T01:38:35;72.47;;;44.80;;
18999;SDS011;9633;50.980;13.850;2024-03-02T01:40:09;73.57;;;44.17;;
18999;SDS011;9633;50.980;13.850;2024-03-02T01:41:42;73.97;;;46.43;;
18999;SDS011;9633;50.980;13.850;2024-03-02T01:43:17;69.97;;;45.40;;
18999;SDS011;9633;50.980;13.850;2024-03-02T01:44:49;70.93;;;42.80;;
18999;SDS011;9633;50.980;13.850;2024-03-02T01:46:22;77.17;;;44.90;;
18999;SDS011;9633;50.980;13.850;2024-03-02T01:47:55;68.80;;;43.97;;
18999;SDS011;9633;50.980;13.850;2024-03-02T01:49:27;73.40;;;46.07;;
18999;SDS011;9633;50.980;13.850;2024-03-02T01:51:01;76.23;;;46.30;;
18999;SDS011;9633;50.980;13.850;2024-03-02T01:52:33;70.63;;;45.37;;
18999;SDS011;9633;50.980;13.850;2024-03-02T01:54:06;70.20;;;43.93;;
18999;SDS011;9633;50.980;13.850;2024-03-02T01:55:38;73.27;;;46.10;;
18999;SDS011;9633;50.980;13.850;2024-03-02T01:57:11;78.23;;;47.20;;
18999;SDS011;9633;50.980;13.850;2024-03-02T01:58:45;75.37;;;46.07;;
18999;SDS011;9633;50.980;13.850;2024-03-02T02:00:18;71.10;;;44.37;;
18999;SDS011;9633;50.980;13.850;2024-03-02T02:01:51;72.07;;;44.13;;
18999;SDS011;9633;50.980;13.850;2024-03-02T02:03:25;65.40;;;43.03;;
18999;SDS011;9633;50.980;13.850;2024-03-02T02:04:58;70.47;;;44.50;;
18999;SDS011;9633;50.980;13.850;2024-03-02T02:06:30;68.87;;;44.57;;
18999;SDS011;9633;50.980;13.850;2024-03-02T02:08:03;68.07;;;43.00;;
18999;SDS011;9633;50.980;13.850;2024-03-02T02:09:37;70.50;;;42.67;;
18999;SDS011;9633;50.980;13.850;2024-03-02T02:11:09;65.23;;;42.43;;
18999;SDS011;9633;50.980;13.850;2024-03-02T02:12:42;71.63;;;44.07;;
18999;SDS011;9633;50.980;13.850;2024-03-02T02:14:16;70.63;;;42.83;;
18999;SDS011;9633;50.980;13.850;2024-03-02T02:15:50;68.47;;;42.70;;
18999;SDS011;9633;50.980;13.850;2024-03-02T02:17:24;74.27;;;45.63;;
18999;SDS011;9633;50.980;13.850;2024-03-02T02:18:57;79.30;;;47.97;;
18999;SDS011;9633;50.980;13.850;2024-03-02T02:20:29;81.20;;;47.93;;
18999;SDS011;9633;50.980;13.850;2024-03-02T02:22:04;78.73;;;47.27;;
18999;SDS011;9633;50.980;13.850;2024-03-02T02:23:36;76.63;;;46.50;;
18999;SDS011;9633;50.980;13.850;2024-03-02T02:25:09;77.43;;;47.43;;
18999;SDS011;9633;50.980;13.850;2024-03-02T02:26:41;80.67;;;48.70;;
18999;SDS011;9633;50.980;13.850;2024-03-02T02:28:14;78.00;;;45.87;;
18999;SDS011;9633;50.980;13.850;2024-03-02T02:29:48;83.37;;;48.10;;
18999;SDS011;9633;50.980;13.850;2024-03-02T02:31:20;83.83;;;48.43;;
18999;SDS011;9633;50.980;13.850;2024-03-02T02:32:53;86.17;;;48.20;;
18999;SDS011;9633;50.980;13.850;2024-03-02T02:34:26;77.27;;;48.33;;
18999;SDS011;9633;50.980;13.850;2024-03-02T02:35:59;81.60;;;46.77;;
18999;SDS011;9633;50.980;13.850;2024-03-02T02:37:33;84.63;;;47.50;;
18999;SDS011;9633;50.980;13.850;2024-03-02T02:39:09;76.10;;;45.43;;
18999;SDS011;9633;50.980;13.850;2024-03-02T02:40:44;78.03;;;46.53;;
18999;SDS011;9633;50.980;13.850;2024-03-02T02:42:17;76.47;;;46.43;;
18999;SDS011;9633;50.980;13.850;2024-03-02T02:43:49;72.83;;;45.27;;
18999;SDS011;9633;50.980;13.850;2024-03-02T02:45:23;74.60;;;45.40;;
18999;SDS011;9633;50.980;13.850;2024-03-02T02:46:56;72.73;;;44.43;;
18999;SDS011;9633;50.980;13.850;2024-03-02T02:48:28;81.00;;;46.67;;
18999;SDS011;9633;50.980;13.850;2024-03-02T02:50:02;76.20;;;44.03;;
18999;SDS011;9633;50.980;13.850;2024-03-02T02:51:35;75.93;;;44.20;;
18999;SDS011;9633;50.980;13.850;2024-03-02T02:53:09;83.60;;;45.93;;
18999;SDS011;9633;50.980;13.850;2024-03-02T02:54:43;74.53;;;43.73;;
18999;SDS011;9633;50.980;13.850;2024-03-02T02:56:15;83.27;;;47.00;;
18999;SDS011;9633;50.980;13.850;2024-03-02T02:57:48;90.20;;;47.93;;
18999;SDS011;9633;50.980;13.850;2024-03-02T02:59:21;86.43;;;46.87;;
18999;SDS011;9633;50.980;13.850;2024-03-02T03:00:53;88.60;;;48.00;;
18999;SDS011;9633;50.980;13.850;2024-03-02T03:02:28;96.07;;;48.67;;
18999;SDS011;9633;50.980;13.850;2024-03-02T03:04:00;106.73;;;52.67;;
18999;SDS011;9633;50.980;13.850;2024-03-02T03:05:33;106.73;;;52.20;;
18999;SDS011;9633;50.980;13.850;2024-03-02T03:07:05;107.37;;;51.20;;
18999;SDS011;9633;50.980;13.850;2024-03-02T03:08:40;99.30;;;51.07;;
18999;SDS011;9633;50.980;13.850;2024-03-02T03:10:12;105.50;;;51.57;;
18999;SDS011;9633;50.980;13.850;2024-03-02T03:11:46;106.17;;;52.07;;
18999;SDS011;9633;50.980;13.850;2024-03-02T03:13:18;109.37;;;52.70;;
18999;SDS011;9633;50.980;13.850;2024-03-02T03:14:52;111.43;;;52.33;;
18999;SDS011;9633;50.980;13.850;2024-03-02T03:16:24;103.00;;;50.83;;
18999;SDS011;9633;50.980;13.850;2024-03-02T03:17:57;107.60;;;49.87;;
18999;SDS011;9633;50.980;13.850;2024-03-02T03:19:30;105.80;;;51.97;;
18999;SDS011;9633;50.980;13.850;2024-03-02T03:21:03;94.70;;;50.30;;
18999;SDS011;9633;50.980;13.850;2024-03-02T03:22:36;96.07;;;49.70;;
18999;SDS011;9633;50.980;13.850;2024-03-02T03:24:23;93.83;;;46.97;;
18999;SDS011;9633;50.980;13.850;2024-03-02T03:25:57;81.70;;;44.37;;
18999;SDS011;9633;50.980;13.850;2024-03-02T03:27:30;83.33;;;45.77;;
18999;SDS011;9633;50.980;13.850;2024-03-02T03:29:02;88.40;;;45.53;;
18999;SDS011;9633;50.980;13.850;2024-03-02T03:30:35;87.53;;;44.63;;
18999;SDS011;9633;50.980;13.850;2024-03-02T03:32:08;97.60;;;47.77;;
18999;SDS011;9633;50.980;13.850;2024-03-02T03:33:41;104.93;;;48.73;;
18999;SDS011;9633;50.980;13.850;2024-03-02T03:35:13;101.33;;;48.90;;
18999;SDS011;9633;50.980;13.850;2024-03-02T03:36:47;107.77;;;48.37;;
18999;SDS011;9633;50.980;13.850;2024-03-02T03:38:20;102.70;;;49.60;;
18999;SDS011;9633;50.980;13.850;2024-03-02T03:39:54;94.70;;;47.17;;
18999;SDS011;9633;50.980;13.850;2024-03-02T03:41:26;102.20;;;49.10;;
18999;SDS011;9633;50.980;13.850;2024-03-02T03:42:59;111.47;;;50.53;;
18999;SDS011;9633;50.980;13.850;2024-03-02T03:44:32;113.53;;;51.93;;
18999;SDS011;9633;50.980;13.850;2024-03-02T03:46:05;121.63;;;51.50;;
18999;SDS011;9633;50.980;13.850;2024-03-02T03:47:37;115.07;;;52.37;;
18999;SDS011;9633;50.980;13.850;2024-03-02T03:49:10;124.90;;;52.43;;
18999;SDS011;9633;50.980;13.850;2024-03-02T03:50:42;118.47;;;51.43;;
18999;SDS011;9633;50.980;13.850;2024-03-02T03:52:16;129.60;;;54.40;;
18999;SDS011;9633;50.980;13.850;2024-03-02T03:53:48;122.33;;;53.03;;
18999;SDS011;9633;50.980;13.850;2024-03-02T03:55:22;123.43;;;52.43;;
18999;SDS011;9633;50.980;13.850;2024-03-02T03:56:56;124.20;;;51.33;;
18999;SDS011;9633;50.980;13.850;2024-03-02T03:58:29;125.27;;;54.27;;
18999;SDS011;9633;50.980;13.850;2024-03-02T04:00:01;118.50;;;52.03;;
18999;SDS011;9633;50.980;13.850;2024-03-02T04:01:42;123.70;;;53.00;;
18999;SDS011;9633;50.980;13.850;2024-03-02T04:03:15;129.47;;;53.47;;
18999;SDS011;9633;50.980;13.850;2024-03-02T04:04:47;120.63;;;53.33;;
18999;SDS011;9633;50.980;13.850;2024-03-02T04:06:21;123.83;;;53.87;;
18999;SDS011;9633;50.980;13.850;2024-03-02T04:07:53;123.73;;;52.43;;
18999;SDS011;9633;50.980;13.850;2024-03-02T04:09:26;120.03;;;54.17;;
18999;SDS011;9633;50.980;13.850;2024-03-02T04:11:00;128.63;;;54.30;;
18999;SDS011;9633;50.980;13.850;2024-03-02T04:12:34;127.40;;;51.60;;
18999;SDS011;9633;50.980;13.850;2024-03-02T04:14:07;123.20;;;52.63;;
18999;SDS011;9633;50.980;13.850;2024-03-02T04:15:41;121.43;;;52.30;;
18999;SDS011;9633;50.980;13.850;2024-03-02T04:17:13;126.47;;;53.63;;
18999;SDS011;9633;50.980;13.850;2024-03-02T04:18:47;121.07;;;51.50;;
18999;SDS011;9633;50.980;13.850;2024-03-02T04:20:19;124.50;;;52.50;;
18999;SDS011;9633;50.980;13.850;2024-03-02T04:21:52;113.80;;;50.93;;
18999;SDS011;9633;50.980;13.850;2024-03-02T04:23:24;115.97;;;51.63;;
18999;SDS011;9633;50.980;13.850;2024-03-02T04:24:57;111.33;;;50.27;;
18999;SDS011;9633;50.980;13.850;2024-03-02T04:26:31;126.17;;;52.87;;
18999;SDS011;9633;50.980;13.850;2024-03-02T04:28:04;116.83;;;51.50;;
18999;SDS011;9633;50.980;13.850;2024-03-02T04:29:37;122.83;;;52.97;;
18999;SDS011;9633;50.980;13.850;2024-03-02T04:31:10;127.30;;;53.13;;
18999;SDS011;9633;50.980;13.850;2024-03-02T04:32:43;116.97;;;51.17;;
18999;SDS011;9633;50.980;13.850;2024-03-02T04:34:18;116.63;;;51.67;;
18999;SDS011;9633;50.980;13.850;2024-03-02T04:35:51;116.50;;;50.77;;
18999;SDS011;9633;50.980;13.850;2024-03-02T04:37:23;128.37;;;52.00;;
18999;SDS011;9633;50.980;13.850;2024-03-02T04:38:56;116.03;;;52.10;;
18999;SDS011;9633;50.980;13.850;2024-03-02T04:40:28;119.97;;;51.83;;
18999;SDS011;9633;50.980;13.850;2024-03-02T04:42:03;114.00;;;51.77;;
18999;SDS011;9633;50.980;13.850;2024-03-02T04:43:35;107.63;;;48.57;;
18999;SDS011;9633;50.980;13.850;2024-03-02T04:45:08;116.33;;;51.00;;
18999;SDS011;9633;50.980;13.850;2024-03-02T04:46:41;111.03;;;50.10;;
18999;SDS011;9633;50.980;13.850;2024-03-02T04:48:14;98.83;;;48.33;;
18999;SDS011;9633;50.980;13.850;2024-03-02T04:49:46;109.30;;;49.27;;
18999;SDS011;9633;50.980;13.850;2024-03-02T04:51:19;101.80;;;48.60;;
18999;SDS011;9633;50.980;13.850;2024-03-02T04:52:51;104.07;;;47.87;;
18999;SDS011;9633;50.980;13.850;2024-03-02T04:54:25;100.17;;;48.63;;
18999;SDS011;9633;50.980;13.850;2024-03-02T04:55:57;108.33;;;50.07;;
18999;SDS011;9633;50.980;13.850;2024-03-02T04:57:53;95.67;;;46.00;;
18999;SDS011;9633;50.980;13.850;2024-03-02T04:59:26;105.77;;;49.83;;
18999;SDS011;9633;50.980;13.850;2024-03-02T05:00:59;108.97;;;47.97;;
18999;SDS011;9633;50.980;13.850;2024-03-02T05:02:32;95.20;;;47.23;;
18999;SDS011;9633;50.980;13.850;2024-03-02T05:04:05;93.83;;;46.57;;
18999;SDS011;9633;50.980;13.850;2024-03-02T05:05:37;101.20;;;47.50;;
18999;SDS011;9633;50.980;13.850;2024-03-02T05:07:10;97.43;;;48.20;;
18999;SDS011;9633;50.980;13.850;2024-03-02T05:08:43;98.63;;;46.67;;
18999;SDS011;9633;50.980;13.850;2024-03-02T05:10:16;88.53;;;44.10;;
18999;SDS011;9633;50.980;13.850;2024-03-02T05:11:49;92.10;;;46.83;;
18999;SDS011;9633;50.980;13.850;2024-03-02T05:13:41;96.97;;;47.53;;
18999;SDS011;9633;50.980;13.850;2024-03-02T05:15:14;90.83;;;45.03;;
18999;SDS011;9633;50.980;13.850;2024-03-02T05:16:46;95.30;;;44.53;;
18999;SDS011;9633;50.980;13.850;2024-03-02T05:18:20;96.43;;;47.00;;
18999;SDS011;9633;50.980;13.850;2024-03-02T05:19:52;92.77;;;45.03;;
18999;SDS011;9633;50.980;13.850;2024-03-02T05:21:25;93.10;;;44.90;;
18999;SDS011;9633;50.980;13.850;2024-03-02T05:22:57;90.17;;;46.70;;
18999;SDS011;9633;50.980;13.850;2024-03-02T05:24:31;88.20;;;45.03;;
18999;SDS011;9633;50.980;13.850;2024-03-02T05:26:03;88.57;;;43.83;;
18999;SDS011;9633;50.980;13.850;2024-03-02T05:27:36;79.50;;;41.67;;
18999;SDS011;9633;50.980;13.850;2024-03-02T05:29:10;77.60;;;41.17;;
18999;SDS011;9633;50.980;13.850;2024-03-02T05:30:43;75.67;;;40.20;;
18999;SDS011;9633;50.980;13.850;2024-03-02T05:32:15;72.57;;;39.57;;
18999;SDS011;9633;50.980;13.850;2024-03-02T05:33:48;68.30;;;38.70;;
18999;SDS011;9633;50.980;13.850;2024-03-02T05:35:25;71.50;;;40.03;;
18999;SDS011;9633;50.980;13.850;2024-03-02T05:36:58;73.37;;;39.07;;
18999;SDS011;9633;50.980;13.850;2024-03-02T05:38:30;69.23;;;38.50;;
18999;SDS011;9633;50.980;13.850;2024-03-02T05:40:03;68.47;;;38.17;;
18999;SDS011;9633;50.980;13.850;2024-03-02T05:41:37;67.97;;;37.10;;
18999;SDS011;9633;50.980;13.850;2024-03-02T05:43:10;64.73;;;36.57;;
18999;SDS011;9633;50.980;13.850;2024-03-02T05:44:44;65.80;;;36.17;;
18999;SDS011;9633;50.980;13.850;2024-03-02T05:46:17;60.93;;;35.77;;
18999;SDS011;9633;50.980;13.850;2024-03-02T05:47:50;63.10;;;36.27;;
18999;SDS011;9633;50.980;13.850;2024-03-02T05:49:23;63.23;;;36.43;;
18999;SDS011;9633;50.980;13.850;2024-03-02T05:50:55;63.67;;;34.60;;
18999;SDS011;9633;50.980;13.850;2024-03-02T05:52:29;56.40;;;34.03;;
18999;SDS011;9633;50.980;13.850;2024-03-02T05:54:01;59.70;;;34.23;;
18999;SDS011;9633;50.980;13.850;2024-03-02T05:55:35;58.80;;;34.73;;
18999;SDS011;9633;50.980;13.850;2024-03-02T05:57:07;57.73;;;33.70;;
18999;SDS011;9633;50.980;13.850;2024-03-02T05:59:03;59.43;;;33.97;;
18999;SDS011;9633;50.980;13.850;2024-03-02T06:00:46;62.17;;;34.90;;
18999;SDS011;9633;50.980;13.850;2024-03-02T06:02:19;59.03;;;34.60;;
18999;SDS011;9633;50.980;13.850;2024-03-02T06:03:52;60.80;;;35.07;;
18999;SDS011;9633;50.980;13.850;2024-03-02T06:05:24;62.70;;;34.47;;
18999;SDS011;9633;50.980;13.850;2024-03-02T06:06:57;62.97;;;35.27;;
18999;SDS011;9633;50.980;13.850;2024-03-02T06:08:30;64.77;;;34.57;;
18999;SDS011;9633;50.980;13.850;2024-03-02T06:10:03;66.03;;;35.17;;
18999;SDS011;9633;50.980;13.850;2024-03-02T06:11:42;66.07;;;35.67;;
18999;SDS011;9633;50.980;13.850;2024-03-02T06:13:15;67.70;;;37.07;;
18999;SDS011;9633;50.980;13.850;2024-03-02T06:14:47;66.43;;;35.67;;
18999;SDS011;9633;50.980;13.850;2024-03-02T06:16:22;70.90;;;36.60;;
18999;SDS011;9633;50.980;13.850;2024-03-02T06:17:54;65.47;;;35.53;;
18999;SDS011;9633;50.980;13.850;2024-03-02T06:19:27;67.80;;;35.17;;
18999;SDS011;9633;50.980;13.850;2024-03-02T06:21:00;67.80;;;36.07;;
18999;SDS011;9633;50.980;13.850;2024-03-02T06:22:33;65.50;;;34.57;;
18999;SDS011;9633;50.980;13.850;2024-03-02T06:24:06;63.67;;;33.67;;
18999;SDS011;9633;50.980;13.850;2024-03-02T06:25:39;65.90;;;35.77;;
18999;SDS011;9633;50.980;13.850;2024-03-02T06:27:11;63.13;;;35.30;;
18999;SDS011;9633;50.980;13.850;2024-03-02T06:28:45;57.40;;;33.63;;
18999;SDS011;9633;50.980;13.850;2024-03-02T06:30:18;56.67;;;32.07;;
18999;SDS011;9633;50.980;13.850;2024-03-02T06:31:52;64.23;;;34.47;;
18999;SDS011;9633;50.980;13.850;2024-03-02T06:33:25;53.53;;;31.67;;
18999;SDS011;9633;50.980;13.850;2024-03-02T06:34:57;59.73;;;33.77;;
18999;SDS011;9633;50.980;13.850;2024-03-02T06:36:31;64.87;;;33.80;;
18999;SDS011;9633;50.980;13.850;2024-03-02T06:38:03;64.03;;;34.60;;
18999;SDS011;9633;50.980;13.850;2024-03-02T06:39:36;63.23;;;34.47;;
18999;SDS011;9633;50.980;13.850;2024-03-02T06:41:09;66.57;;;35.30;;
18999;SDS011;9633;50.980;13.850;2024-03-02T06:42:42;65.40;;;34.63;;
18999;SDS011;9633;50.980;13.850;2024-03-02T06:44:14;63.73;;;34.00;;
18999;SDS011;9633;50.980;13.850;2024-03-02T06:45:47;60.70;;;32.67;;
18999;SDS011;9633;50.980;13.850;2024-03-02T06:47:22;60.30;;;33.40;;
18999;SDS011;9633;50.980;13.850;2024-03-02T06:48:55;69.73;;;35.97;;
18999;SDS011;9633;50.980;13.850;2024-03-02T06:50:28;72.40;;;35.40;;
18999;SDS011;9633;50.980;13.850;2024-03-02T06:52:01;73.40;;;37.20;;
18999;SDS011;9633;50.980;13.850;2024-03-02T06:53:34;77.83;;;37.73;;
18999;SDS011;9633;50.980;13.850;2024-03-02T06:55:07;73.07;;;38.00;;
18999;SDS011;9633;50.980;13.850;2024-03-02T06:56:39;80.33;;;39.00;;
18999;SDS011;9633;50.980;13.850;2024-03-02T06:58:12;71.97;;;37.80;;
18999;SDS011;9633;50.980;13.850;2024-03-02T06:59:46;70.73;;;38.67;;
18999;SDS011;9633;50.980;13.850;2024-03-02T07:01:21;80.37;;;40.13;;
18999;SDS011;9633;50.980;13.850;2024-03-02T07:02:57;76.27;;;38.37;;
18999;SDS011;9633;50.980;13.850;2024-03-02T07:04:30;69.67;;;37.93;;
18999;SDS011;9633;50.980;13.850;2024-03-02T07:06:03;80.73;;;40.47;;
18999;SDS011;9633;50.980;13.850;2024-03-02T07:07:36;73.77;;;37.53;;
18999;SDS011;9633;50.980;13.850;2024-03-02T07:09:08;79.57;;;39.77;;
18999;SDS011;9633;50.980;13.850;2024-03-02T07:10:42;77.73;;;39.70;;
18999;SDS011;9633;50.980;13.850;2024-03-02T07:12:16;82.87;;;40.03;;
18999;SDS011;9633;50.980;13.850;2024-03-02T07:13:48;78.50;;;40.77;;
18999;SDS011;9633;50.980;13.850;2024-03-02T07:15:21;74.63;;;38.40;;
18999;SDS011;9633;50.980;13.850;2024-03-02T07:17:08;83.13;;;40.13;;
18999;SDS011;9633;50.980;13.850;2024-03-02T07:18:45;75.77;;;40.33;;
18999;SDS011;9633;50.980;13.850;2024-03-02T07:20:22;79.23;;;39.60;;
18999;SDS011;9633;50.980;13.850;2024-03-02T07:21:55;84.47;;;41.70;;
18999;SDS011;9633;50.980;13.850;2024-03-02T07:23:28;79.23;;;39.80;;
18999;SDS011;9633;50.980;13.850;2024-03-02T07:25:02;75.80;;;38.70;;
18999;SDS011;9633;50.980;13.850;2024-03-02T07:26:34;76.07;;;40.07;;
18999;SDS011;9633;50.980;13.850;2024-03-02T07:28:10;84.07;;;40.70;;
18999;SDS011;9633;50.980;13.850;2024-03-02T07:29:42;83.53;;;41.40;;
18999;SDS011;9633;50.980;13.850;2024-03-02T07:31:16;86.53;;;41.97;;
18999;SDS011;9633;50.980;13.850;2024-03-02T07:32:49;88.97;;;43.07;;
18999;SDS011;9633;50.980;13.850;2024-03-02T07:34:23;86.03;;;40.87;;
18999;SDS011;9633;50.980;13.850;2024-03-02T07:35:57;79.13;;;40.40;;
18999;SDS011;9633;50.980;13.850;2024-03-02T07:37:33;88.60;;;42.43;;
18999;SDS011;9633;50.980;13.850;2024-03-02T07:39:06;84.13;;;42.00;;
18999;SDS011;9633;50.980;13.850;2024-03-02T07:40:38;85.67;;;42.47;;
18999;SDS011;9633;50.980;13.850;2024-03-02T07:42:12;91.70;;;43.00;;
18999;SDS011;9633;50.980;13.850;2024-03-02T07:43:44;95.73;;;45.00;;
18999;SDS011;9633;50.980;13.850;2024-03-02T07:45:17;93.53;;;44.13;;
18999;SDS011;9633;50.980;13.850;2024-03-02T07:46:49;82.97;;;40.97;;
18999;SDS011;9633;50.980;13.850;2024-03-02T07:48:23;93.67;;;42.33;;
18999;SDS011;9633;50.980;13.850;2024-03-02T07:49:56;90.27;;;43.30;;
18999;SDS011;9633;50.980;13.850;2024-03-02T07:51:29;91.07;;;42.87;;
18999;SDS011;9633;50.980;13.850;2024-03-02T07:53:03;87.57;;;41.97;;
18999;SDS011;9633;50.980;13.850;2024-03-02T07:54:38;87.60;;;42.60;;
18999;SDS011;9633;50.980;13.850;2024-03-02T07:56:11;84.73;;;41.57;;
18999;SDS011;9633;50.980;13.850;2024-03-02T07:57:43;85.63;;;42.47;;
18999;SDS011;9633;50.980;13.850;2024-03-02T07:59:16;85.13;;;41.03;;
18999;SDS011;9633;50.980;13.850;2024-03-02T08:00:49;87.00;;;41.53;;
18999;SDS011;9633;50.980;13.850;2024-03-02T08:02:25;86.03;;;42.23;;
18999;SDS011;9633;50.980;13.850;2024-03-02T08:03:59;89.90;;;41.57;;
18999;SDS011;9633;50.980;13.850;2024-03-02T08:05:34;83.83;;;40.40;;
18999;SDS011;9633;50.980;13.850;2024-03-02T08:07:07;85.67;;;40.83;;
18999;SDS011;9633;50.980;13.850;2024-03-02T08:08:40;83.43;;;40.73;;
18999;SDS011;9633;50.980;13.850;2024-03-02T08:10:14;81.43;;;39.57;;
18999;SDS011;9633;50.980;13.850;2024-03-02T08:11:46;82.97;;;39.03;;
18999;SDS011;9633;50.980;13.850;2024-03-02T08:13:19;76.40;;;37.10;;
18999;SDS011;9633;50.980;13.850;2024-03-02T08:14:52;73.20;;;36.77;;
18999;SDS011;9633;50.980;13.850;2024-03-02T08:16:24;80.73;;;41.73;;
18999;SDS011;9633;50.980;13.850;2024-03-02T08:17:58;64.57;;;33.60;;
18999;SDS011;9633;50.980;13.850;2024-03-02T08:19:30;68.93;;;38.30;;
18999;SDS011;9633;50.980;13.850;2024-03-02T08:21:05;67.10;;;34.57;;
18999;SDS011;9633;50.980;13.850;2024-03-02T08:22:39;63.60;;;33.07;;
18999;SDS011;9633;50.980;13.850;2024-03-02T08:24:12;62.83;;;32.83;;
18999;SDS011;9633;50.980;13.850;2024-03-02T08:25:44;64.13;;;34.17;;
18999;SDS011;9633;50.980;13.850;2024-03-02T08:27:18;60.13;;;32.00;;
18999;SDS011;9633;50.980;13.850;2024-03-02T08:28:50;52.07;;;29.03;;
18999;SDS011;9633;50.980;13.850;2024-03-02T08:30:24;56.83;;;29.67;;
18999;SDS011;9633;50.980;13.850;2024-03-02T08:31:56;57.23;;;30.67;;
18999;SDS011;9633;50.980;13.850;2024-03-02T08:33:29;54.67;;;29.70;;
18999;SDS011;9633;50.980;13.850;2024-03-02T08:35:03;55.90;;;28.97;;
18999;SDS011;9633;50.980;13.850;2024-03-02T08:36:38;54.73;;;29.93;;
18999;SDS011;9633;50.980;13.850;2024-03-02T08:38:11;50.77;;;30.03;;
18999;SDS011;9633;50.980;13.850;2024-03-02T08:39:45;56.87;;;30.23;;
18999;SDS011;9633;50.980;13.850;2024-03-02T08:41:17;54.13;;;29.43;;
18999;SDS011;9633;50.980;13.850;2024-03-02T08:42:50;57.43;;;30.13;;
18999;SDS011;9633;50.980;13.850;2024-03-02T08:44:24;54.90;;;28.83;;
18999;SDS011;9633;50.980;13.850;2024-03-02T08:45:57;53.87;;;30.47;;
18999;SDS011;9633;50.980;13.850;2024-03-02T08:47:30;58.23;;;30.97;;
18999;SDS011;9633;50.980;13.850;2024-03-02T08:49:02;56.93;;;29.57;;
18999;SDS011;9633;50.980;13.850;2024-03-02T08:50:36;57.13;;;29.93;;
18999;SDS011;9633;50.980;13.850;2024-03-02T08:52:11;49.37;;;27.83;;
18999;SDS011;9633;50.980;13.850;2024-03-02T08:53:43;50.23;;;28.07;;
18999;SDS011;9633;50.980;13.850;2024-03-02T08:55:16;49.50;;;27.80;;
18999;SDS011;9633;50.980;13.850;2024-03-02T08:56:48;49.37;;;27.67;;
18999;SDS011;9633;50.980;13.850;2024-03-02T08:58:22;45.70;;;26.70;;
18999;SDS011;9633;50.980;13.850;2024-03-02T08:59:54;50.53;;;27.13;;
18999;SDS011;9633;50.980;13.850;2024-03-02T09:01:27;51.10;;;28.03;;
18999;SDS011;9633;50.980;13.850;2024-03-02T09:03:00;49.37;;;27.80;;
18999;SDS011;9633;50.980;13.850;2024-03-02T09:04:33;47.80;;;26.77;;
18999;SDS011;9633;50.980;13.850;2024-03-02T09:06:06;45.80;;;26.70;;